sensor_id;sensor_type;location;lat;lon;timestamp;pressure;altitude;pressure_sealevel;temperature;humidity
80798;BME280;70202;52.238;10.680;2024-01-16T00:00:29;98809.44;;;3.12;91.18
80798;BME280;70202;52.238;10.680;2024-01-16T00:01:29;98687.03;;;2.46;90.77
80798;BME280;70202;52.238;10.680;2024-01-16T00:02:29;98798.75;;;3.11;90.96
80798;BME280;70202;52.238;10.680;2024-01-16T00:03:30;98827.78;;;3.28;90.92
80798;BME280;70202;52.238;10.680;2024-01-16T00:04:30;98682.75;;;2.40;90.51
80798;BME280;70202;52.238;10.680;2024-01-16T00:05:31;98648.59;;;2.17;90.33
80798;BME280;70202;52.238;10.680;2024-01-16T00:06:31;98825.25;;;3.23;90.92
80798;BME280;70202;52.238;10.680;2024-01-16T00:07:32;98815.53;;;3.17;90.41
80798;BME280;70202;52.238;10.680;2024-01-16T00:08:34;98848.16;;;3.35;90.85
80798;BME280;70202;52.238;10.680;2024-01-16T00:09:35;98647.88;;;2.11;90.76
80798;BME280;70202;52.238;10.680;2024-01-16T00:10:35;98842.09;;;3.28;90.03
80798;BME280;70202;52.238;10.680;2024-01-16T00:11:42;98854.41;;;3.35;90.93
80798;BME280;70202;52.238;10.680;2024-01-16T00:12:43;98731.16;;;2.67;90.22
80798;BME280;70202;52.238;10.680;2024-01-16T00:13:43;98756.69;;;2.80;90.79
80798;BME280;70202;52.238;10.680;2024-01-16T00:14:43;98727.81;;;2.59;90.75
80798;BME280;70202;52.238;10.680;2024-01-16T00:15:44;98733.06;;;2.63;90.49
80798;BME280;70202;52.238;10.680;2024-01-16T00:16:45;98797.25;;;3.02;90.78
80798;BME280;70202;52.238;10.680;2024-01-16T00:17:46;98763.06;;;2.78;90.54
80798;BME280;70202;52.238;10.680;2024-01-16T00:18:46;98763.88;;;2.81;90.97
80798;BME280;70202;52.238;10.680;2024-01-16T00:19:47;98744.81;;;2.61;90.40
80798;BME280;70202;52.238;10.680;2024-01-16T00:20:47;98688.50;;;2.30;90.53
80798;BME280;70202;52.238;10.680;2024-01-16T00:21:48;98868.75;;;3.36;90.00
80798;BME280;70202;52.238;10.680;2024-01-16T00:22:48;98872.34;;;3.36;89.99
80798;BME280;70202;52.238;10.680;2024-01-16T00:23:49;98875.94;;;3.35;90.43
80798;BME280;70202;52.238;10.680;2024-01-16T00:24:49;98752.03;;;2.59;90.07
80798;BME280;70202;52.238;10.680;2024-01-16T00:25:49;98846.88;;;3.18;90.31
80798;BME280;70202;52.238;10.680;2024-01-16T00:26:50;98839.84;;;3.14;90.06
80798;BME280;70202;52.238;10.680;2024-01-16T00:27:51;98846.16;;;3.13;90.18
80798;BME280;70202;52.238;10.680;2024-01-16T00:28:51;98780.28;;;2.72;89.65
80798;BME280;70202;52.238;10.680;2024-01-16T00:29:52;98752.22;;;2.53;90.46
80798;BME280;70202;52.238;10.680;2024-01-16T00:30:52;98797.03;;;2.80;90.49
80798;BME280;70202;52.238;10.680;2024-01-16T00:31:52;98791.78;;;2.77;89.61
80798;BME280;70202;52.238;10.680;2024-01-16T00:32:53;98728.28;;;2.45;90.42
80798;BME280;70202;52.238;10.680;2024-01-16T00:33:53;98794.59;;;2.72;90.18
80798;BME280;70202;52.238;10.680;2024-01-16T00:34:54;98753.88;;;2.57;89.87
80798;BME280;70202;52.238;10.680;2024-01-16T00:35:54;98886.81;;;3.32;90.83
80798;BME280;70202;52.238;10.680;2024-01-16T00:36:55;98713.56;;;2.29;89.99
80798;BME280;70202;52.238;10.680;2024-01-16T00:37:55;98766.38;;;2.59;89.76
80798;BME280;70202;52.238;10.680;2024-01-16T00:38:56;98892.13;;;3.34;89.98
80798;BME280;70202;52.238;10.680;2024-01-16T00:39:56;98864.19;;;3.11;89.88
80798;BME280;70202;52.238;10.680;2024-01-16T00:40:57;98893.88;;;3.35;89.56
80798;BME280;70202;52.238;10.680;2024-01-16T00:41:57;98855.00;;;3.17;89.95
80798;BME280;70202;52.238;10.680;2024-01-16T00:42:57;98887.59;;;3.36;90.20
80798;BME280;70202;52.238;10.680;2024-01-16T00:43:58;98886.66;;;3.37;90.56
80798;BME280;70202;52.238;10.680;2024-01-16T00:44:58;98887.59;;;3.36;90.60
80798;BME280;70202;52.238;10.680;2024-01-16T00:45:59;98805.94;;;2.82;89.95
80798;BME280;70202;52.238;10.680;2024-01-16T00:46:59;98888.72;;;3.29;90.05
80798;BME280;70202;52.238;10.680;2024-01-16T00:48:01;98863.09;;;3.17;90.14
80798;BME280;70202;52.238;10.680;2024-01-16T00:49:02;98753.94;;;2.55;90.02
80798;BME280;70202;52.238;10.680;2024-01-16T00:50:02;98760.94;;;2.61;89.83
80798;BME280;70202;52.238;10.680;2024-01-16T00:51:03;98824.13;;;3.02;89.73
80798;BME280;70202;52.238;10.680;2024-01-16T00:52:04;98795.25;;;2.81;89.64
80798;BME280;70202;52.238;10.680;2024-01-16T00:53:04;98879.66;;;3.31;89.43
80798;BME280;70202;52.238;10.680;2024-01-16T00:54:04;98771.44;;;2.68;89.66
80798;BME280;70202;52.238;10.680;2024-01-16T00:55:08;98700.41;;;2.21;89.67
80798;BME280;70202;52.238;10.680;2024-01-16T00:56:09;98822.56;;;2.95;90.17
80798;BME280;70202;52.238;10.680;2024-01-16T00:57:09;98772.31;;;2.69;89.91
80798;BME280;70202;52.238;10.680;2024-01-16T00:58:10;98896.34;;;3.42;90.12
80798;BME280;70202;52.238;10.680;2024-01-16T00:59:10;98855.81;;;3.20;89.57
80798;BME280;70202;52.238;10.680;2024-01-16T01:00:11;98798.84;;;2.80;90.25
80798;BME280;70202;52.238;10.680;2024-01-16T01:01:11;98820.84;;;2.92;90.08
80798;BME280;70202;52.238;10.680;2024-01-16T01:02:12;98898.06;;;3.45;89.86
80798;BME280;70202;52.238;10.680;2024-01-16T01:03:13;98823.78;;;2.85;89.77
80798;BME280;70202;52.238;10.680;2024-01-16T01:04:13;98858.66;;;3.14;89.47
80798;BME280;70202;52.238;10.680;2024-01-16T01:05:13;98887.94;;;3.25;90.11
80798;BME280;70202;52.238;10.680;2024-01-16T01:06:14;98837.91;;;2.91;90.03
80798;BME280;70202;52.238;10.680;2024-01-16T01:07:14;98870.59;;;3.07;90.05
80798;BME280;70202;52.238;10.680;2024-01-16T01:08:15;98860.28;;;2.92;90.57
80798;BME280;70202;52.238;10.680;2024-01-16T01:09:16;98903.50;;;3.15;90.31
80798;BME280;70202;52.238;10.680;2024-01-16T01:10:16;98909.66;;;3.19;90.01
80798;BME280;70202;52.238;10.680;2024-01-16T01:11:17;98799.75;;;2.50;90.45
80798;BME280;70202;52.238;10.680;2024-01-16T01:12:17;98871.06;;;2.92;90.54
80798;BME280;70202;52.238;10.680;2024-01-16T01:13:17;98916.00;;;3.16;90.80
80798;BME280;70202;52.238;10.680;2024-01-16T01:14:18;98815.78;;;2.54;90.61
80798;BME280;70202;52.238;10.680;2024-01-16T01:15:19;98824.63;;;2.57;90.77
80798;BME280;70202;52.238;10.680;2024-01-16T01:16:20;98915.56;;;3.02;90.76
80798;BME280;70202;52.238;10.680;2024-01-16T01:17:21;98932.16;;;3.16;90.50
80798;BME280;70202;52.238;10.680;2024-01-16T01:18:21;98922.47;;;3.11;90.49
80798;BME280;70202;52.238;10.680;2024-01-16T01:19:22;98943.78;;;3.17;90.60
80798;BME280;70202;52.238;10.680;2024-01-16T01:20:23;98847.00;;;2.58;90.87
80798;BME280;70202;52.238;10.680;2024-01-16T01:21:23;98845.19;;;2.60;90.98
80798;BME280;70202;52.238;10.680;2024-01-16T01:22:24;98866.25;;;2.73;90.74
80798;BME280;70202;52.238;10.680;2024-01-16T01:23:24;98923.50;;;3.07;90.34
80798;BME280;70202;52.238;10.680;2024-01-16T01:24:24;98841.69;;;2.56;90.72
80798;BME280;70202;52.238;10.680;2024-01-16T01:25:25;98807.34;;;2.36;90.88
80798;BME280;70202;52.238;10.680;2024-01-16T01:26:26;98940.31;;;3.13;91.12
80798;BME280;70202;52.238;10.680;2024-01-16T01:27:26;98859.28;;;2.66;90.68
80798;BME280;70202;52.238;10.680;2024-01-16T01:28:27;98835.47;;;2.54;90.23
80798;BME280;70202;52.238;10.680;2024-01-16T01:29:27;98952.72;;;3.19;90.73
80798;BME280;70202;52.238;10.680;2024-01-16T01:30:27;98856.75;;;2.62;90.64
80798;BME280;70202;52.238;10.680;2024-01-16T01:31:28;98958.31;;;3.11;90.28
80798;BME280;70202;52.238;10.680;2024-01-16T01:32:28;98850.78;;;2.52;90.55
80798;BME280;70202;52.238;10.680;2024-01-16T01:33:28;98929.19;;;2.96;90.75
80798;BME280;70202;52.238;10.680;2024-01-16T01:34:29;98938.94;;;3.00;90.85
80798;BME280;70202;52.238;10.680;2024-01-16T01:35:29;98876.66;;;2.55;89.94
80798;BME280;70202;52.238;10.680;2024-01-16T01:36:30;98870.31;;;2.57;90.44
80798;BME280;70202;52.238;10.680;2024-01-16T01:37:30;98969.09;;;3.10;89.91
80798;BME280;70202;52.238;10.680;2024-01-16T01:38:31;98977.09;;;3.13;90.53
80798;BME280;70202;52.238;10.680;2024-01-16T01:39:31;98982.53;;;3.11;90.53
80798;BME280;70202;52.238;10.680;2024-01-16T01:40:31;98877.66;;;2.52;90.53
80798;BME280;70202;52.238;10.680;2024-01-16T01:41:32;98941.09;;;2.87;90.21
80798;BME280;70202;52.238;10.680;2024-01-16T01:42:32;98930.41;;;2.86;90.70
80798;BME280;70202;52.238;10.680;2024-01-16T01:43:33;98985.22;;;3.11;90.92
80798;BME280;70202;52.238;10.680;2024-01-16T01:44:33;98864.56;;;2.40;90.70
80798;BME280;70202;52.238;10.680;2024-01-16T01:45:33;98882.97;;;2.54;90.47
80798;BME280;70202;52.238;10.680;2024-01-16T01:46:34;98957.84;;;2.97;90.25
80798;BME280;70202;52.238;10.680;2024-01-16T01:47:36;98966.56;;;3.05;90.95
80798;BME280;70202;52.238;10.680;2024-01-16T01:48:38;98980.78;;;3.10;90.92
80798;BME280;70202;52.238;10.680;2024-01-16T01:49:40;98953.47;;;2.93;90.53
80798;BME280;70202;52.238;10.680;2024-01-16T01:50:41;98885.66;;;2.54;90.48
80798;BME280;70202;52.238;10.680;2024-01-16T01:51:41;98862.03;;;2.35;90.04
80798;BME280;70202;52.238;10.680;2024-01-16T01:52:42;98992.41;;;3.11;90.44
80798;BME280;70202;52.238;10.680;2024-01-16T01:53:44;98940.16;;;2.88;90.06
80798;BME280;70202;52.238;10.680;2024-01-16T01:54:45;98986.31;;;3.04;89.97
80798;BME280;70202;52.238;10.680;2024-01-16T01:55:46;98878.66;;;2.48;90.38
80798;BME280;70202;52.238;10.680;2024-01-16T01:56:47;98823.28;;;2.13;89.63
80798;BME280;70202;52.238;10.680;2024-01-16T01:57:47;98900.69;;;2.61;90.50
80798;BME280;70202;52.238;10.680;2024-01-16T01:58:49;98992.34;;;3.12;90.36
80798;BME280;70202;52.238;10.680;2024-01-16T01:59:53;98839.22;;;2.19;90.14
80798;BME280;70202;52.238;10.680;2024-01-16T02:00:53;98911.44;;;2.61;89.74
80798;BME280;70202;52.238;10.680;2024-01-16T02:01:54;98991.41;;;3.13;90.08
80798;BME280;70202;52.238;10.680;2024-01-16T02:02:55;98994.09;;;3.13;90.71
80798;BME280;70202;52.238;10.680;2024-01-16T02:03:55;98967.78;;;2.95;89.74
80798;BME280;70202;52.238;10.680;2024-01-16T02:04:57;98994.97;;;3.14;90.41
80798;BME280;70202;52.238;10.680;2024-01-16T02:05:58;98884.03;;;2.48;89.67
80798;BME280;70202;52.238;10.680;2024-01-16T02:07:00;99006.88;;;3.07;90.56
80798;BME280;70202;52.238;10.680;2024-01-16T02:08:00;98899.41;;;2.43;89.86
80798;BME280;70202;52.238;10.680;2024-01-16T02:09:01;99004.03;;;3.11;89.09
80798;BME280;70202;52.238;10.680;2024-01-16T02:10:02;98989.94;;;3.03;89.50
80798;BME280;70202;52.238;10.680;2024-01-16T02:11:03;98984.50;;;3.05;89.63
80798;BME280;70202;52.238;10.680;2024-01-16T02:12:05;98909.91;;;2.52;89.79
80798;BME280;70202;52.238;10.680;2024-01-16T02:13:05;98947.69;;;2.77;89.83
80798;BME280;70202;52.238;10.680;2024-01-16T02:14:06;98999.59;;;3.10;89.42
80798;BME280;70202;52.238;10.680;2024-01-16T02:15:06;98891.22;;;2.47;89.39
80798;BME280;70202;52.238;10.680;2024-01-16T02:16:21;98993.22;;;3.13;89.44
80798;BME280;70202;52.238;10.680;2024-01-16T02:17:22;98903.53;;;2.55;89.79
80798;BME280;70202;52.238;10.680;2024-01-16T02:18:22;98966.81;;;2.97;90.13
80798;BME280;70202;52.238;10.680;2024-01-16T02:19:23;98970.38;;;2.98;89.10
80798;BME280;70202;52.238;10.680;2024-01-16T02:20:25;99003.03;;;3.15;89.94
80798;BME280;70202;52.238;10.680;2024-01-16T02:21:28;99001.22;;;3.16;89.62
80798;BME280;70202;52.238;10.680;2024-01-16T02:22:31;98914.19;;;2.58;89.61
80798;BME280;70202;52.238;10.680;2024-01-16T02:23:33;98972.19;;;2.97;89.97
80798;BME280;70202;52.238;10.680;2024-01-16T02:24:34;98977.44;;;3.02;89.80
80798;BME280;70202;52.238;10.680;2024-01-16T02:25:35;98897.28;;;2.54;89.46
80798;BME280;70202;52.238;10.680;2024-01-16T02:26:35;98910.56;;;2.60;89.11
80798;BME280;70202;52.238;10.680;2024-01-16T02:27:36;98926.50;;;2.66;89.13
80798;BME280;70202;52.238;10.680;2024-01-16T02:28:36;98999.59;;;3.10;89.55
80798;BME280;70202;52.238;10.680;2024-01-16T02:29:41;98972.06;;;3.02;89.63
80798;BME280;70202;52.238;10.680;2024-01-16T02:30:42;98915.00;;;2.61;89.21
80798;BME280;70202;52.238;10.680;2024-01-16T02:31:43;98989.06;;;3.03;89.19
80798;BME280;70202;52.238;10.680;2024-01-16T02:32:43;98810.28;;;1.97;89.62
80798;BME280;70202;52.238;10.680;2024-01-16T02:33:43;98905.47;;;2.49;88.82
80798;BME280;70202;52.238;10.680;2024-01-16T02:34:44;98902.78;;;2.49;89.12
80798;BME280;70202;52.238;10.680;2024-01-16T02:35:44;98980.13;;;3.02;89.65
80798;BME280;70202;52.238;10.680;2024-01-16T02:36:45;98895.81;;;2.44;88.95
80798;BME280;70202;52.238;10.680;2024-01-16T02:37:45;98888.69;;;2.41;88.89
80798;BME280;70202;52.238;10.680;2024-01-16T02:38:45;99018.19;;;3.18;89.28
80798;BME280;70202;52.238;10.680;2024-01-16T02:39:46;99018.44;;;3.10;88.51
80798;BME280;70202;52.238;10.680;2024-01-16T02:40:46;98994.59;;;2.98;89.16
80798;BME280;70202;52.238;10.680;2024-01-16T02:41:47;98989.38;;;2.92;88.37
80798;BME280;70202;52.238;10.680;2024-01-16T02:42:47;98991.25;;;2.88;88.46
80798;BME280;70202;52.238;10.680;2024-01-16T02:43:47;99009.13;;;2.91;88.74
80798;BME280;70202;52.238;10.680;2024-01-16T02:44:48;99009.72;;;3.02;88.60
80798;BME280;70202;52.238;10.680;2024-01-16T02:45:48;99006.38;;;2.92;88.81
80798;BME280;70202;52.238;10.680;2024-01-16T02:46:48;99029.28;;;3.07;89.25
80798;BME280;70202;52.238;10.680;2024-01-16T02:47:49;99000.19;;;2.89;89.13
80798;BME280;70202;52.238;10.680;2024-01-16T02:48:50;99029.22;;;3.09;88.74
80798;BME280;70202;52.238;10.680;2024-01-16T02:49:50;98988.44;;;2.93;88.52
80798;BME280;70202;52.238;10.680;2024-01-16T02:50:50;98882.13;;;2.20;88.75
80798;BME280;70202;52.238;10.680;2024-01-16T02:51:51;98933.34;;;2.47;88.45
80798;BME280;70202;52.238;10.680;2024-01-16T02:52:51;99037.16;;;3.13;88.54
80798;BME280;70202;52.238;10.680;2024-01-16T02:53:52;98957.13;;;2.61;88.88
80798;BME280;70202;52.238;10.680;2024-01-16T02:54:52;98933.09;;;2.55;88.38
80798;BME280;70202;52.238;10.680;2024-01-16T02:55:52;99043.41;;;3.14;88.32
80798;BME280;70202;52.238;10.680;2024-01-16T02:56:53;98992.28;;;2.84;88.69
80798;BME280;70202;52.238;10.680;2024-01-16T02:57:53;99025.84;;;3.02;88.50
80798;BME280;70202;52.238;10.680;2024-01-16T02:58:54;98956.28;;;2.59;88.57
80798;BME280;70202;52.238;10.680;2024-01-16T02:59:54;98942.09;;;2.54;89.21
80798;BME280;70202;52.238;10.680;2024-01-16T03:00:55;98950.16;;;2.54;88.67
80798;BME280;70202;52.238;10.680;2024-01-16T03:01:55;98943.03;;;2.53;89.05
80798;BME280;70202;52.238;10.680;2024-01-16T03:02:55;98939.47;;;2.50;88.94
80798;BME280;70202;52.238;10.680;2024-01-16T03:03:56;99031.22;;;3.02;89.17
80798;BME280;70202;52.238;10.680;2024-01-16T03:04:56;98959.09;;;2.54;88.95
80798;BME280;70202;52.238;10.680;2024-01-16T03:05:57;98959.75;;;2.62;89.06
80798;BME280;70202;52.238;10.680;2024-01-16T03:06:57;98968.69;;;2.64;88.79
80798;BME280;70202;52.238;10.680;2024-01-16T03:07:58;99024.16;;;2.98;89.18
80798;BME280;70202;52.238;10.680;2024-01-16T03:08:58;98937.72;;;2.49;88.92
80798;BME280;70202;52.238;10.680;2024-01-16T03:09:58;99057.78;;;3.13;89.30
80798;BME280;70202;52.238;10.680;2024-01-16T03:10:59;98863.78;;;2.04;88.55
80798;BME280;70202;52.238;10.680;2024-01-16T03:11:59;99063.00;;;3.19;88.51
80798;BME280;70202;52.238;10.680;2024-01-16T03:13:00;99030.50;;;2.95;88.16
80798;BME280;70202;52.238;10.680;2024-01-16T03:14:00;98949.59;;;2.42;88.57
80798;BME280;70202;52.238;10.680;2024-01-16T03:15:01;99050.81;;;3.06;88.63
80798;BME280;70202;52.238;10.680;2024-01-16T03:16:06;98944.22;;;2.42;88.45
80798;BME280;70202;52.238;10.680;2024-01-16T03:17:07;99059.66;;;3.11;88.68
80798;BME280;70202;52.238;10.680;2024-01-16T03:18:07;99070.50;;;3.08;88.83
80798;BME280;70202;52.238;10.680;2024-01-16T03:19:07;99061.56;;;3.07;88.17
80798;BME280;70202;52.238;10.680;2024-01-16T03:20:08;99058.88;;;3.07;88.03
80798;BME280;70202;52.238;10.680;2024-01-16T03:21:10;99067.00;;;3.04;88.03
80798;BME280;70202;52.238;10.680;2024-01-16T03:22:11;99071.31;;;3.11;88.21
80798;BME280;70202;52.238;10.680;2024-01-16T03:23:11;99084.75;;;3.11;87.87
80798;BME280;70202;52.238;10.680;2024-01-16T03:24:12;99066.06;;;3.05;87.97
80798;BME280;70202;52.238;10.680;2024-01-16T03:25:12;98979.69;;;2.55;87.92
80798;BME280;70202;52.238;10.680;2024-01-16T03:26:13;99063.63;;;2.97;87.94
80798;BME280;70202;52.238;10.680;2024-01-16T03:27:14;98991.25;;;2.57;88.81
80798;BME280;70202;52.238;10.680;2024-01-16T03:28:14;98972.72;;;2.48;88.00
80798;BME280;70202;52.238;10.680;2024-01-16T03:29:14;99085.53;;;3.15;88.33
80798;BME280;70202;52.238;10.680;2024-01-16T03:30:15;99067.75;;;3.09;88.42
80798;BME280;70202;52.238;10.680;2024-01-16T03:31:15;99096.31;;;3.15;87.77
80798;BME280;70202;52.238;10.680;2024-01-16T03:32:16;99005.31;;;2.67;87.65
80798;BME280;70202;52.238;10.680;2024-01-16T03:33:16;99090.13;;;3.11;87.97
80798;BME280;70202;52.238;10.680;2024-01-16T03:34:17;98979.91;;;2.47;88.09
80798;BME280;70202;52.238;10.680;2024-01-16T03:35:17;99084.78;;;3.10;88.51
80798;BME280;70202;52.238;10.680;2024-01-16T03:36:17;98900.94;;;1.88;87.86
80798;BME280;70202;52.238;10.680;2024-01-16T03:37:19;98993.34;;;2.46;87.94
80798;BME280;70202;52.238;10.680;2024-01-16T03:38:19;99032.78;;;2.78;87.84
80798;BME280;70202;52.238;10.680;2024-01-16T03:39:20;99077.19;;;2.93;88.42
80798;BME280;70202;52.238;10.680;2024-01-16T03:40:20;99083.28;;;2.99;88.14
80798;BME280;70202;52.238;10.680;2024-01-16T03:41:21;99102.72;;;3.09;88.31
80798;BME280;70202;52.238;10.680;2024-01-16T03:42:21;99027.81;;;2.64;87.92
80798;BME280;70202;52.238;10.680;2024-01-16T03:43:21;98992.66;;;2.39;87.60
80798;BME280;70202;52.238;10.680;2024-01-16T03:44:22;99078.97;;;2.94;87.91
80798;BME280;70202;52.238;10.680;2024-01-16T03:45:22;99084.22;;;2.97;88.29
80798;BME280;70202;52.238;10.680;2024-01-16T03:46:23;98999.53;;;2.49;87.93
80798;BME280;70202;52.238;10.680;2024-01-16T03:47:23;99061.41;;;2.81;88.00
80798;BME280;70202;52.238;10.680;2024-01-16T03:48:23;99091.34;;;2.99;88.65
80798;BME280;70202;52.238;10.680;2024-01-16T03:49:24;99027.97;;;2.58;88.13
80798;BME280;70202;52.238;10.680;2024-01-16T03:50:25;99082.53;;;2.94;87.84
80798;BME280;70202;52.238;10.680;2024-01-16T03:51:25;99116.09;;;3.12;88.26
80798;BME280;70202;52.238;10.680;2024-01-16T03:52:26;99030.50;;;2.63;88.03
80798;BME280;70202;52.238;10.680;2024-01-16T03:53:26;98988.28;;;2.35;87.80
80798;BME280;70202;52.238;10.680;2024-01-16T03:54:27;99009.59;;;2.43;87.26
80798;BME280;70202;52.238;10.680;2024-01-16T03:55:27;98930.19;;;1.98;87.66
80798;BME280;70202;52.238;10.680;2024-01-16T03:56:27;99013.22;;;2.40;87.72
80798;BME280;70202;52.238;10.680;2024-01-16T03:57:28;99133.19;;;3.10;88.26
80798;BME280;70202;52.238;10.680;2024-01-16T03:58:28;99024.69;;;2.47;87.54
80798;BME280;70202;52.238;10.680;2024-01-16T03:59:29;99089.88;;;2.88;88.08
80798;BME280;70202;52.238;10.680;2024-01-16T04:00:29;99130.50;;;3.10;87.90
80798;BME280;70202;52.238;10.680;2024-01-16T04:01:31;98910.94;;;1.83;87.70
80798;BME280;70202;52.238;10.680;2024-01-16T04:02:32;99091.69;;;2.87;87.31
80798;BME280;70202;52.238;10.680;2024-01-16T04:03:32;99035.47;;;2.45;87.96
80798;BME280;70202;52.238;10.680;2024-01-16T04:04:33;99113.13;;;2.89;87.87
80798;BME280;70202;52.238;10.680;2024-01-16T04:05:33;99041.44;;;2.57;87.78
80798;BME280;70202;52.238;10.680;2024-01-16T04:06:34;99039.16;;;2.41;87.19
80798;BME280;70202;52.238;10.680;2024-01-16T04:07:35;99138.69;;;3.07;87.06
80798;BME280;70202;52.238;10.680;2024-01-16T04:08:35;99135.13;;;3.05;87.68
80798;BME280;70202;52.238;10.680;2024-01-16T04:09:35;99137.81;;;3.05;86.98
80798;BME280;70202;52.238;10.680;2024-01-16T04:10:36;99082.25;;;2.72;87.62
80798;BME280;70202;52.238;10.680;2024-01-16T04:11:37;99137.81;;;3.05;87.86
80798;BME280;70202;52.238;10.680;2024-01-16T04:12:37;99096.44;;;2.78;87.19
80798;BME280;70202;52.238;10.680;2024-01-16T04:13:37;99111.56;;;2.82;87.26
80798;BME280;70202;52.238;10.680;2024-01-16T04:14:38;98974.06;;;1.97;87.11
80798;BME280;70202;52.238;10.680;2024-01-16T04:15:38;99095.56;;;2.75;86.96
80798;BME280;70202;52.238;10.680;2024-01-16T04:16:39;99150.47;;;3.01;86.85
80798;BME280;70202;52.238;10.680;2024-01-16T04:17:39;99077.22;;;2.59;87.47
80798;BME280;70202;52.238;10.680;2024-01-16T04:18:42;99148.66;;;3.01;87.37
80798;BME280;70202;52.238;10.680;2024-01-16T04:19:43;99116.06;;;2.81;87.66
80798;BME280;70202;52.238;10.680;2024-01-16T04:20:43;99061.47;;;2.45;87.22
80798;BME280;70202;52.238;10.680;2024-01-16T04:21:44;99140.84;;;2.92;87.54
80798;BME280;70202;52.238;10.680;2024-01-16T04:22:45;99122.13;;;2.88;88.06
80798;BME280;70202;52.238;10.680;2024-01-16T04:23:45;99138.00;;;2.98;87.55
80798;BME280;70202;52.238;10.680;2024-01-16T04:24:46;99059.53;;;2.50;86.96
80798;BME280;70202;52.238;10.680;2024-01-16T04:25:47;99146.75;;;3.05;86.99
80798;BME280;70202;52.238;10.680;2024-01-16T04:26:47;99055.88;;;2.53;87.31
80798;BME280;70202;52.238;10.680;2024-01-16T04:27:47;99141.38;;;3.05;87.69
80798;BME280;70202;52.238;10.680;2024-01-16T04:28:48;99093.03;;;2.71;87.50
80798;BME280;70202;52.238;10.680;2024-01-16T04:29:48;99040.03;;;2.42;87.55
80798;BME280;70202;52.238;10.680;2024-01-16T04:30:49;99135.19;;;3.01;87.65
80798;BME280;70202;52.238;10.680;2024-01-16T04:31:49;99115.94;;;2.86;87.48
80798;BME280;70202;52.238;10.680;2024-01-16T04:32:49;98984.63;;;2.05;87.05
80798;BME280;70202;52.238;10.680;2024-01-16T04:33:50;99142.38;;;3.03;86.94
80798;BME280;70202;52.238;10.680;2024-01-16T04:34:50;99141.50;;;3.02;87.32
80798;BME280;70202;52.238;10.680;2024-01-16T04:35:51;99111.56;;;2.82;86.81
80798;BME280;70202;52.238;10.680;2024-01-16T04:36:51;99130.13;;;2.91;87.40
80798;BME280;70202;52.238;10.680;2024-01-16T04:37:51;99145.06;;;3.03;86.81
80798;BME280;70202;52.238;10.680;2024-01-16T04:38:52;99104.50;;;2.78;87.54
80798;BME280;70202;52.238;10.680;2024-01-16T04:39:52;99103.50;;;2.82;87.86
80798;BME280;70202;52.238;10.680;2024-01-16T04:40:54;99136.94;;;3.04;87.69
80798;BME280;70202;52.238;10.680;2024-01-16T04:41:54;99129.13;;;2.95;87.58
80798;BME280;70202;52.238;10.680;2024-01-16T04:42:55;99030.28;;;2.38;87.14
80798;BME280;70202;52.238;10.680;2024-01-16T04:43:55;99132.78;;;2.92;87.33
80798;BME280;70202;52.238;10.680;2024-01-16T04:44:55;99151.34;;;3.01;86.53
80798;BME280;70202;52.238;10.680;2024-01-16T04:45:56;99137.25;;;2.93;86.48
80798;BME280;70202;52.238;10.680;2024-01-16T04:46:56;99046.75;;;2.25;86.92
80798;BME280;70202;52.238;10.680;2024-01-16T04:47:57;99111.72;;;2.75;87.50
80798;BME280;70202;52.238;10.680;2024-01-16T04:48:57;99027.16;;;2.22;87.31
80798;BME280;70202;52.238;10.680;2024-01-16T04:49:58;99093.19;;;2.65;87.58
80798;BME280;70202;52.238;10.680;2024-01-16T04:50:58;99019.97;;;2.22;86.86
80798;BME280;70202;52.238;10.680;2024-01-16T04:51:58;98961.00;;;1.84;87.13
80798;BME280;70202;52.238;10.680;2024-01-16T04:52:59;99141.81;;;2.90;86.82
80798;BME280;70202;52.238;10.680;2024-01-16T04:54:00;99019.16;;;2.19;87.17
80798;BME280;70202;52.238;10.680;2024-01-16T04:55:00;99108.41;;;2.66;87.28
80798;BME280;70202;52.238;10.680;2024-01-16T04:56:01;99024.34;;;2.27;87.65
80798;BME280;70202;52.238;10.680;2024-01-16T04:57:01;99112.56;;;2.78;87.21
80798;BME280;70202;52.238;10.680;2024-01-16T04:58:01;99142.78;;;2.87;87.39
80798;BME280;70202;52.238;10.680;2024-01-16T04:59:02;99144.34;;;2.96;87.53
80798;BME280;70202;52.238;10.680;2024-01-16T05:00:03;99116.09;;;2.80;86.69
80798;BME280;70202;52.238;10.680;2024-01-16T05:01:07;98978.59;;;1.95;86.67
80798;BME280;70202;52.238;10.680;2024-01-16T05:02:08;99096.63;;;2.70;86.85
80798;BME280;70202;52.238;10.680;2024-01-16T05:03:08;99149.00;;;2.89;87.56
80798;BME280;70202;52.238;10.680;2024-01-16T05:04:09;99153.28;;;2.96;86.76
80798;BME280;70202;52.238;10.680;2024-01-16T05:05:10;99106.34;;;2.75;86.94
80798;BME280;70202;52.238;10.680;2024-01-16T05:06:14;99139.81;;;2.98;87.30
80798;BME280;70202;52.238;10.680;2024-01-16T05:07:15;99113.38;;;2.81;87.11
80798;BME280;70202;52.238;10.680;2024-01-16T05:08:15;99098.38;;;2.72;87.25
80798;BME280;70202;52.238;10.680;2024-01-16T05:09:16;99147.78;;;3.01;87.41
80798;BME280;70202;52.238;10.680;2024-01-16T05:10:16;99157.66;;;3.00;87.61
80798;BME280;70202;52.238;10.680;2024-01-16T05:11:16;99029.53;;;2.33;87.30
80798;BME280;70202;52.238;10.680;2024-01-16T05:12:17;99142.50;;;2.98;87.08
80798;BME280;70202;52.238;10.680;2024-01-16T05:13:17;99033.88;;;2.38;87.23
80798;BME280;70202;52.238;10.680;2024-01-16T05:14:18;99146.88;;;3.02;87.38
80798;BME280;70202;52.238;10.680;2024-01-16T05:15:18;99025.97;;;2.32;87.19
80798;BME280;70202;52.238;10.680;2024-01-16T05:16:18;99146.88;;;3.02;86.88
80798;BME280;70202;52.238;10.680;2024-01-16T05:17:19;99135.38;;;2.95;87.15
80798;BME280;70202;52.238;10.680;2024-01-16T05:18:19;99026.03;;;2.29;86.62
80798;BME280;70202;52.238;10.680;2024-01-16T05:19:19;99157.66;;;3.00;87.44
80798;BME280;70202;52.238;10.680;2024-01-16T05:20:20;98998.72;;;2.13;87.42
80798;BME280;70202;52.238;10.680;2024-01-16T05:21:21;99142.41;;;3.01;87.69